Time,TemperatureF,DewpointF,PressureIn,WindDirection,WindDirectionDegrees,WindSpeedMPH,WindSpeedGustMPH,Humidity,HourlyPrecipIn,Conditions,Clouds,dailyrainin,SolarRadiationWatts/m^2,SoftwareType,DateUTC
2013-03-03 00:08:00,21.6,20.0,29.70,ESE,107,0.0,1.0,92,0.00,,,0.00,0,weatherlink.com 1.10,2013-03-03 05:08:00,
2013-03-03 00:23:00,21.6,19.0,29.70,ESE,107,0.0,1.0,91,0.00,,,0.00,0,weatherlink.com 1.10,2013-03-03 05:23:00,
2013-03-03 00:38:00,21.5,19.0,29.70,ESE,107,0.0,2.0,91,0.00,,,0.00,0,weatherlink.com 1.10,2013-03-03 05:38:00,
2013-03-03 00:53:00,21.4,20.0,29.70,ESE,107,0.0,0.0,92,0.00,,,0.00,0,weatherlink.com 1.10,2013-03-03 05:53:00,
2013-03-03 01:08:00,21.4,20.0,29.70,ESE,107,0.0,0.0,92,0.00,,,0.00,0,weatherlink.com 1.10,2013-03-03 06:08:00,
2013-03-03 01:23:00,21.4,20.0,29.70,ESE,107,0.0,0.0,92,0.00,,,0.00,0,weatherlink.com 1.10,2013-03-03 06:23:00,
2013-03-03 01:38:00,21.4,20.0,29.70,ESE,107,0.0,0.0,92,0.00,,,0.00,0,weatherlink.com 1.10,2013-03-03 06:38:00,
2013-03-03 01:53:00,21.3,19.0,29.70,ESE,107,0.0,0.0,92,0.00,,,0.00,0,weatherlink.com 1.10,2013-03-03 06:53:00,
2013-03-03 02:08:00,21.3,19.0,29.69,ESE,107,0.0,0.0,92,0.00,,,0.00,0,weatherlink.com 1.10,2013-03-03 07:08:00,
2013-03-03 02:23:00,21.2,19.0,29.69,ESE,107,1.0,1.0,92,0.00,,,0.00,0,weatherlink.com 1.10,2013-03-03 07:23:00,
2013-03-03 02:38:00,21.1,19.0,29.69,ESE,107,0.0,1.0,92,0.00,,,0.00,0,weatherlink.com 1.10,2013-03-03 07:38:00,
2013-03-03 02:53:00,21.1,19.0,29.68,ESE,107,0.0,0.0,92,0.00,,,0.00,0,weatherlink.com 1.10,2013-03-03 07:53:00,
2013-03-03 03:08:00,21.0,19.0,29.68,ESE,107,0.0,1.0,92,0.00,,,0.00,0,weatherlink.com 1.10,2013-03-03 08:08:00,
2013-03-03 03:23:00,21.0,19.0,29.68,ESE,107,0.0,0.0,92,0.00,,,0.00,0,weatherlink.com 1.10,2013-03-03 08:23:00,
2013-03-03 03:38:00,20.9,19.0,29.68,ESE,107,0.0,1.0,92,0.00,,,0.00,0,weatherlink.com 1.10,2013-03-03 08:38:00,
2013-03-03 03:53:00,20.8,19.0,29.68,ESE,107,0.0,0.0,92,0.00,,,0.00,0,weatherlink.com 1.10,2013-03-03 08:53:00,
2013-03-03 04:08:00,20.8,19.0,29.68,ESE,107,0.0,0.0,92,0.00,,,0.00,0,weatherlink.com 1.10,2013-03-03 09:08:00,
2013-03-03 04:23:00,20.8,19.0,29.68,ESE,107,0.0,0.0,92,0.00,,,0.00,0,weatherlink.com 1.10,2013-03-03 09:23:00,
2013-03-03 04:38:00,20.8,19.0,29.69,ESE,107,0.0,0.0,92,0.00,,,0.00,0,weatherlink.com 1.10,2013-03-03 09:38:00,
2013-03-03 04:53:00,20.9,19.0,29.69,ESE,107,0.0,0.0,92,0.00,,,0.00,0,weatherlink.com 1.10,2013-03-03 09:53:00,
2013-03-03 05:08:00,20.9,19.0,29.69,ESE,107,0.0,0.0,92,0.00,,,0.00,0,weatherlink.com 1.10,2013-03-03 10:08:00,
2013-03-03 05:23:00,20.9,19.0,29.69,ESE,107,0.0,0.0,92,0.00,,,0.00,0,weatherlink.com 1.10,2013-03-03 10:23:00,
2013-03-03 05:38:00,20.9,19.0,29.69,ESE,107,1.0,1.0,92,0.00,,,0.00,0,weatherlink.com 1.10,2013-03-03 10:38:00,
2013-03-03 05:53:00,20.7,19.0,29.69,ESE,107,0.0,1.0,92,0.00,,,0.00,0,weatherlink.com 1.10,2013-03-03 10:53:00,
2013-03-03 06:08:00,20.6,19.0,29.69,ESE,107,0.0,1.0,92,0.00,,,0.00,0,weatherlink.com 1.10,2013-03-03 11:08:00,
2013-03-03 06:23:00,20.6,19.0,29.69,ESE,107,0.0,1.0,92,0.00,,,0.00,0,weatherlink.com 1.10,2013-03-03 11:23:00,
2013-03-03 06:38:00,20.7,19.0,29.69,ESE,107,0.0,0.0,92,0.00,,,0.00,0,weatherlink.com 1.10,2013-03-03 11:38:00,
2013-03-03 06:53:00,20.8,19.0,29.69,ESE,107,0.0,0.0,92,0.00,,,0.00,9,weatherlink.com 1.10,2013-03-03 11:53:00,
2013-03-03 07:08:00,21.1,19.0,29.69,ESE,107,0.0,1.0,92,0.00,,,0.00,14,weatherlink.com 1.10,2013-03-03 12:08:00,
2013-03-03 07:23:00,21.5,20.0,29.70,ESE,107,0.0,1.0,92,0.00,,,0.00,23,weatherlink.com 1.10,2013-03-03 12:23:00,
2013-03-03 07:38:00,21.8,20.0,29.70,ESE,107,0.0,2.0,91,0.00,,,0.00,30,weatherlink.com 1.10,2013-03-03 12:38:00,
2013-03-03 07:53:00,22.2,20.0,29.70,ESE,107,1.0,2.0,90,0.00,,,0.00,46,weatherlink.com 1.10,2013-03-03 12:53:00,
2013-03-03 08:08:00,22.5,20.0,29.70,ESE,107,1.0,2.0,91,0.00,,,0.00,42,weatherlink.com 1.10,2013-03-03 13:08:00,
2013-03-03 08:23:00,22.6,20.0,29.70,East,88,1.0,3.0,91,0.00,,,0.00,54,weatherlink.com 1.10,2013-03-03 13:23:00,
2013-03-03 08:38:00,23.4,21.0,29.69,East,88,0.0,1.0,91,0.00,,,0.00,63,weatherlink.com 1.10,2013-03-03 13:38:00,
2013-03-03 08:53:00,24.3,22.0,29.69,East,88,1.0,1.0,89,0.00,,,0.00,67,weatherlink.com 1.10,2013-03-03 13:53:00,
2013-03-03 09:08:00,25.1,22.0,29.68,East,88,3.0,3.0,87,0.00,,,0.00,79,weatherlink.com 1.10,2013-03-03 14:08:00,
2013-03-03 09:23:00,24.9,22.0,29.68,NE,46,0.0,2.0,87,0.00,,,0.00,69,weatherlink.com 1.10,2013-03-03 14:23:00,
2013-03-03 09:39:00,25.3,22.0,29.68,NE,46,0.0,1.0,88,0.00,,,0.00,54,weatherlink.com 1.10,2013-03-03 14:39:00,
2013-03-03 09:54:00,25.8,23.0,29.67,East,81,0.0,2.0,87,0.00,,,0.00,67,weatherlink.com 1.10,2013-03-03 14:54:00,
2013-03-03 10:09:00,25.8,23.0,29.67,East,90,2.0,3.0,87,0.00,,,0.00,77,weatherlink.com 1.10,2013-03-03 15:09:00,
2013-03-03 10:24:00,26.2,23.0,29.67,East,90,0.0,3.0,87,0.00,,,0.00,86,weatherlink.com 1.10,2013-03-03 15:24:00,
2013-03-03 10:39:00,26.7,23.0,29.67,ESE,119,1.0,5.0,86,0.00,,,0.00,79,weatherlink.com 1.10,2013-03-03 15:39:00,
2013-03-03 10:54:00,26.8,23.0,29.66,ENE,78,0.0,2.0,86,0.00,,,0.00,74,weatherlink.com 1.10,2013-03-03 15:54:00,
2013-03-03 11:09:00,27.3,23.0,29.66,East,92,1.0,3.0,85,0.00,,,0.00,62,weatherlink.com 1.10,2013-03-03 16:09:00,
2013-03-03 11:24:00,27.5,24.0,29.66,ESE,108,0.0,2.0,86,0.00,,,0.00,70,weatherlink.com 1.10,2013-03-03 16:24:00,
2013-03-03 11:39:00,28.3,24.0,29.66,SSW,198,1.0,2.0,85,0.00,,,0.00,74,weatherlink.com 1.10,2013-03-03 16:39:00,
2013-03-03 11:54:00,28.8,24.0,29.66,SE,143,0.0,3.0,83,0.00,,,0.00,86,weatherlink.com 1.10,2013-03-03 16:54:00,
2013-03-03 12:09:00,29.1,25.0,29.65,SSW,207,0.0,1.0,83,0.00,,,0.00,109,weatherlink.com 1.10,2013-03-03 17:09:00,
2013-03-03 12:24:00,29.4,25.0,29.65,WNW,292,0.0,2.0,82,0.00,,,0.00,109,weatherlink.com 1.10,2013-03-03 17:24:00,
2013-03-03 12:39:00,29.5,25.0,29.64,WNW,293,1.0,1.0,82,0.00,,,0.00,111,weatherlink.com 1.10,2013-03-03 17:39:00,
2013-03-03 13:09:00,28.8,25.0,29.63,WNW,294,0.0,3.0,84,0.00,,,0.00,105,weatherlink.com 1.10,2013-03-03 18:09:00,
2013-03-03 13:24:00,28.6,24.0,29.63,NNW,345,1.0,3.0,83,0.00,,,0.00,91,weatherlink.com 1.10,2013-03-03 18:24:00,
2013-03-03 13:39:00,28.0,24.0,29.63,NW,324,0.0,2.0,86,0.00,,,0.00,62,weatherlink.com 1.10,2013-03-03 18:39:00,
2013-03-03 13:54:00,28.2,24.0,29.63,ENE,71,0.0,3.0,84,0.00,,,0.00,90,weatherlink.com 1.10,2013-03-03 18:54:00,
2013-03-03 14:09:00,28.4,24.0,29.63,SE,146,0.0,2.0,83,0.00,,,0.00,120,weatherlink.com 1.10,2013-03-03 19:09:00,
2013-03-03 14:24:00,28.5,24.0,29.63,WNW,284,0.0,3.0,83,0.00,,,0.00,111,weatherlink.com 1.10,2013-03-03 19:24:00,
2013-03-03 14:39:00,28.5,24.0,29.63,NNW,344,0.0,3.0,82,0.00,,,0.00,125,weatherlink.com 1.10,2013-03-03 19:39:00,
2013-03-03 14:54:00,28.6,24.0,29.64,NNE,16,0.0,3.0,83,0.00,,,0.00,104,weatherlink.com 1.10,2013-03-03 19:54:00,
2013-03-03 15:09:00,28.1,24.0,29.64,NW,308,0.0,3.0,83,0.00,,,0.00,81,weatherlink.com 1.10,2013-03-03 20:09:00,
2013-03-03 15:24:00,28.1,24.0,29.64,NW,309,1.0,5.0,84,0.00,,,0.00,79,weatherlink.com 1.10,2013-03-03 20:24:00,
2013-03-03 15:39:00,27.9,23.0,29.64,NNW,327,0.0,6.0,83,0.00,,,0.00,67,weatherlink.com 1.10,2013-03-03 20:39:00,
2013-03-03 15:54:00,27.3,23.0,29.64,NW,304,1.0,5.0,85,0.00,,,0.00,53,weatherlink.com 1.10,2013-03-03 20:54:00,
2013-03-03 16:09:00,26.5,23.0,29.64,NNW,335,0.0,4.0,86,0.00,,,0.00,44,weatherlink.com 1.10,2013-03-03 21:09:00,
2013-03-03 16:24:00,26.2,23.0,29.65,NW,312,1.0,4.0,86,0.00,,,0.00,33,weatherlink.com 1.10,2013-03-03 21:24:00,
2013-03-03 16:39:00,25.8,22.0,29.65,NW,314,0.0,4.0,86,0.00,,,0.00,23,weatherlink.com 1.10,2013-03-03 21:39:00,
2013-03-03 16:54:00,25.7,22.0,29.65,NW,321,2.0,2.0,87,0.00,,,0.00,14,weatherlink.com 1.10,2013-03-03 21:54:00,
2013-03-03 17:09:00,25.5,22.0,29.65,NW,323,0.0,1.0,86,0.00,,,0.00,9,weatherlink.com 1.10,2013-03-03 22:09:00,
2013-03-03 17:24:00,25.3,22.0,29.65,NW,323,0.0,1.0,86,0.00,,,0.00,0,weatherlink.com 1.10,2013-03-03 22:24:00,
2013-03-03 17:39:00,25.2,22.0,29.66,NW,323,1.0,1.0,87,0.00,,,0.00,0,weatherlink.com 1.10,2013-03-03 22:39:00,
2013-03-03 17:54:00,25.1,22.0,29.66,NW,323,0.0,1.0,87,0.00,,,0.00,0,weatherlink.com 1.10,2013-03-03 22:54:00,
2013-03-03 18:09:00,25.0,22.0,29.67,NW,323,0.0,0.0,88,0.00,,,0.00,0,weatherlink.com 1.10,2013-03-03 23:09:00,
2013-03-03 18:24:00,25.0,22.0,29.67,West,281,0.0,2.0,88,0.00,,,0.00,0,weatherlink.com 1.10,2013-03-03 23:24:00,
2013-03-03 18:39:00,24.7,21.0,29.67,West,278,0.0,2.0,87,0.00,,,0.00,0,weatherlink.com 1.10,2013-03-03 23:39:00,
2013-03-03 18:54:00,24.4,21.0,29.67,West,278,0.0,0.0,87,0.00,,,0.00,0,weatherlink.com 1.10,2013-03-03 23:54:00,
2013-03-03 19:09:00,24.2,21.0,29.68,WNW,296,0.0,2.0,87,0.00,,,0.00,0,weatherlink.com 1.10,2013-03-04 00:09:00,
2013-03-03 19:24:00,23.9,21.0,29.68,West,276,0.0,5.0,88,0.00,,,0.00,0,weatherlink.com 1.10,2013-03-04 00:24:00,
2013-03-03 19:39:00,23.7,21.0,29.67,SSE,167,0.0,3.0,88,0.00,,,0.00,0,weatherlink.com 1.10,2013-03-04 00:39:00,
2013-03-03 19:54:00,23.3,20.0,29.68,NNE,32,0.0,3.0,88,0.00,,,0.00,0,weatherlink.com 1.10,2013-03-04 00:54:00,
2013-03-03 20:09:00,23.0,20.0,29.67,SSW,207,2.0,4.0,88,0.00,,,0.00,0,weatherlink.com 1.10,2013-03-04 01:09:00,
2013-03-03 20:24:00,22.8,20.0,29.68,SSE,160,0.0,3.0,88,0.00,,,0.00,0,weatherlink.com 1.10,2013-03-04 01:24:00,
2013-03-03 20:39:00,22.8,20.0,29.67,SSW,204,0.0,1.0,88,0.00,,,0.00,0,weatherlink.com 1.10,2013-03-04 01:39:00,
2013-03-03 20:54:00,22.7,20.0,29.68,WSW,250,0.0,2.0,88,0.00,,,0.00,0,weatherlink.com 1.10,2013-03-04 01:54:00,
2013-03-03 21:09:00,22.7,20.0,29.68,SW,220,0.0,2.0,88,0.00,,,0.00,0,weatherlink.com 1.10,2013-03-04 02:09:00,
2013-03-03 21:24:00,22.5,20.0,29.68,WNW,296,0.0,3.0,88,0.00,,,0.00,0,weatherlink.com 1.10,2013-03-04 02:24:00,
2013-03-03 21:39:00,22.2,19.0,29.67,SE,140,0.0,3.0,88,0.00,,,0.00,0,weatherlink.com 1.10,2013-03-04 02:39:00,
2013-03-03 21:54:00,21.9,19.0,29.67,SE,146,1.0,3.0,88,0.00,,,0.00,0,weatherlink.com 1.10,2013-03-04 02:54:00,
2013-03-03 22:09:00,21.7,19.0,29.67,SE,130,2.0,8.0,88,0.00,,,0.00,0,weatherlink.com 1.10,2013-03-04 03:09:00,
2013-03-03 22:24:00,21.7,19.0,29.67,SE,142,0.0,4.0,89,0.00,,,0.00,0,weatherlink.com 1.10,2013-03-04 03:24:00,
2013-03-03 22:39:00,21.7,19.0,29.66,WNW,302,1.0,5.0,89,0.00,,,0.00,0,weatherlink.com 1.10,2013-03-04 03:39:00,
2013-03-03 22:55:00,21.6,19.0,29.66,SE,138,0.0,2.0,89,0.00,,,0.00,0,weatherlink.com 1.10,2013-03-04 03:55:00,
2013-03-03 23:10:00,21.6,19.0,29.66,ESE,112,1.0,3.0,89,0.00,,,0.00,0,weatherlink.com 1.10,2013-03-04 04:10:00,
2013-03-03 23:25:00,21.5,19.0,29.66,SE,136,0.0,6.0,89,0.00,,,0.00,0,weatherlink.com 1.10,2013-03-04 04:25:00,
2013-03-03 23:40:00,21.3,19.0,29.66,NNE,29,1.0,2.0,89,0.00,,,0.00,0,weatherlink.com 1.10,2013-03-04 04:40:00,
2013-03-03 23:55:00,21.3,19.0,29.66,NE,37,0.0,2.0,89,0.00,,,0.00,0,weatherlink.com 1.10,2013-03-04 04:55:00,